Zvenigorod, Russia
Current Conditions -  °F | °C
As of 3:30 PM on Friday 19 Dec 2014 (Local Time) from UUWW Reporting Station
Light Snow Light Snow  
Wind Chill: 22°   Ceiling: 600
Heat Index: 32°   Visibility: 2.3mi
Dew Point: 30°   Wind: 13mph
Humidity: 93%   Direction: 160°SSE
Pressure: 29.56"   Gusts: NA
Location:  55.73°N, 36.85°E
Report Text: UUWW 191230Z 16006MPS 3800 -SN OVC006 M00/M01 Q1001 19290050TEMPO 1000 SN OVC004
Loading
Personal Weather Stations






























Interactive Weather Map New forecast layout! Learn more

10-Day Weather Forecast

Advertisements
Track Severe Weather on mobile